Aérodrome :
LOGIN :

S'inscrire | Disclaimer

   EN    FR    IT 

 










Légende :    VFR   VFR Marginal   IFR   IFR Intensif   IFR Très Intensif
Visi : 
Plafond : 
>= 8 km
>= 3000ft
5 à 8 km
1000 à 3000 ft
1500m à 5 km
500 à 1000 ft
800 à 1500m
200 à 500 ft
< 800m
< 200 ft
Symboles :   Orages  Brouillard  Fortes neiges  Fortes précipitations  Vent > 20 kt
SIGMETs :   Divers  Orages  Givrage  Turbulence  Onde Orograph.  Cendres Volcan.






- Altitude de l'aérodrome : 162 ft
- Code IATA : BOD


LFBD - Bordeaux / Merignac

DERNIER METAR :
  • 261930Z AUTO 10007KT CAVOK 12/10 Q1015 NOSIG

METARs EXPIRÉS :
  • 261900Z AUTO 12007KT CAVOK 12/10 Q1015 NOSIG
  • 261830Z AUTO 07002KT CAVOK 10/09 Q1015 NOSIG
  • 261800Z AUTO 00000KT CAVOK 11/09 Q1015 NOSIG
  • 261730Z AUTO 00000KT CAVOK 11/10 Q1015 NOSIG

TAF TAF LFBD
Valide du 26 à 18h jusqu'au 28 à 00h UTC


261700Z 2618/2724 10008KT CAVOK TX16/2714Z TN07/2706Z
BECMG 2702/2704 MIFG
PROB30 2704/2709 4000 BKN008
BECMG 2707/2709 NSW
ATIS : +33 5 57 92 81 04



MET'MAP, la Météo Aéronautique d'un coup d'oeil ! - Copyright ORBIFLY Décembre 2007 - Disclaimer

ORBIFLY MET'MAP TEAM :

Programmation & Développement : Alexandra Zaïnal
Sur une idée originale de : Baudouin d'Aumeries
Assistance à la programmation : Marc-Olivier Méhu
Soutien technique & logistique : Manuel Goepfert

Contact : metmap@orbifly.com




SOURCES & CREDITS :

   NOAA